createdAt,value
2022-10-18T00:00:05.005Z,162.30
2022-10-18T00:02:31.614Z,164.70
2022-10-18T00:04:58.287Z,166.95
2022-10-18T00:07:24.926Z,166.38
2022-10-18T00:09:51.563Z,158.90
2022-10-18T00:12:18.194Z,166.27
2022-10-18T00:14:44.859Z,157.23
2022-10-18T00:17:11.538Z,159.05
2022-10-18T00:19:38.180Z,158.43
2022-10-18T00:22:04.788Z,153.52
2022-10-18T00:24:31.404Z,162.95
2022-10-18T00:26:58.055Z,158.18
2022-10-18T00:29:24.711Z,159.77
2022-10-18T00:31:51.339Z,153.68
2022-10-18T00:34:18.006Z,155.55
2022-10-18T00:36:45.437Z,155.50
2022-10-18T00:39:16.798Z,155.43
2022-10-18T00:41:44.395Z,161.25
2022-10-18T00:44:10.950Z,160.68
2022-10-18T00:46:39.418Z,163.82
2022-10-18T00:49:31.021Z,165.23
2022-10-18T00:52:08.364Z,162.52
2022-10-18T00:54:39.254Z,158.27
2022-10-18T00:57:07.028Z,156.10
2022-10-18T00:59:34.295Z,154.25
2022-10-18T01:02:01.788Z,152.50
2022-10-18T01:04:28.508Z,150.48
2022-10-18T01:06:58.108Z,149.52
2022-10-18T01:09:32.422Z,155.55
2022-10-18T01:12:17.296Z,150.77
2022-10-18T01:14:57.759Z,154.13
2022-10-18T01:17:34.768Z,157.55
2022-10-18T01:20:28.932Z,152.07
2022-10-18T01:23:11.026Z,154.57
2022-10-18T01:25:56.223Z,151.38
2022-10-18T01:28:32.127Z,165.32
2022-10-18T01:31:22.488Z,155.82
2022-10-18T01:33:54.052Z,164.95
2022-10-18T01:36:28.711Z,160.75
2022-10-18T01:38:59.044Z,157.43
2022-10-18T01:41:27.592Z,154.52
2022-10-18T01:44:00.893Z,162.45
2022-10-18T01:46:28.936Z,151.80
2022-10-18T01:48:56.929Z,154.27
2022-10-18T01:51:29.357Z,149.30
2022-10-18T01:53:56.528Z,155.40
2022-10-18T01:56:35.637Z,156.57
2022-10-18T01:59:39.745Z,161.52
2022-10-18T02:02:33.807Z,159.50
2022-10-18T02:05:06.508Z,155.25
2022-10-18T02:08:05.660Z,150.98
2022-10-18T02:10:42.926Z,150.27
2022-10-18T02:13:14.671Z,157.15
2022-10-18T02:15:45.216Z,154.52
2022-10-18T02:18:16.776Z,166.10
2022-10-18T02:20:43.380Z,160.68
2022-10-18T02:23:11.840Z,147.85
2022-10-18T02:25:39.072Z,159.55
2022-10-18T02:28:06.186Z,152.52
2022-10-18T02:30:41.007Z,149.75
2022-10-18T02:33:33.462Z,148.88
2022-10-18T02:36:06.322Z,154.00
2022-10-18T02:38:33.840Z,148.65
2022-10-18T02:41:00.841Z,155.05
2022-10-18T02:43:27.447Z,162.90
2022-10-18T02:45:54.505Z,162.63
2022-10-18T02:48:21.128Z,157.70
2022-10-18T02:50:47.724Z,151.85
2022-10-18T02:53:14.327Z,149.68
2022-10-18T02:55:40.913Z,150.35
2022-10-18T02:58:07.531Z,153.63
2022-10-18T03:00:34.198Z,145.07
2022-10-18T03:03:01.085Z,151.68
2022-10-18T03:05:27.733Z,149.55
2022-10-18T03:07:57.842Z,151.73
2022-10-18T03:10:24.516Z,158.90
2022-10-18T03:12:51.370Z,150.40
2022-10-18T03:15:17.964Z,153.90
2022-10-18T03:17:44.664Z,151.00
2022-10-18T03:20:11.637Z,146.27
2022-10-18T03:22:38.281Z,154.55
2022-10-18T03:25:05.184Z,155.20
2022-10-18T03:27:32.104Z,152.50
2022-10-18T03:29:59.909Z,155.57
2022-10-18T03:32:26.593Z,149.20
2022-10-18T03:34:53.225Z,153.60
2022-10-18T03:37:19.823Z,145.20
2022-10-18T03:39:46.433Z,148.55
2022-10-18T03:42:13.132Z,151.63
2022-10-18T03:44:39.789Z,156.98
2022-10-18T03:47:06.420Z,143.88
2022-10-18T03:52:04.623Z,152.48
2022-10-18T03:54:31.293Z,160.00
2022-10-18T03:56:58.120Z,148.88
2022-10-18T03:59:24.740Z,148.30
2022-10-18T04:01:51.598Z,151.90
2022-10-18T04:04:18.623Z,149.07
2022-10-18T04:06:45.221Z,148.25
2022-10-18T04:09:12.007Z,156.05
2022-10-18T04:11:38.609Z,157.20
2022-10-18T04:14:08.303Z,148.18
2022-10-18T04:19:06.487Z,156.30
2022-10-18T04:21:33.199Z,157.60
2022-10-18T04:23:59.818Z,145.27
2022-10-18T04:26:26.422Z,150.32
2022-10-18T04:28:53.119Z,150.13
2022-10-18T04:31:19.814Z,143.70
2022-10-18T04:33:46.444Z,159.00
2022-10-18T04:36:13.057Z,146.05
2022-10-18T04:38:39.841Z,147.98
2022-10-18T04:41:06.505Z,145.02
2022-10-18T04:43:33.174Z,146.10
2022-10-18T04:46:00.436Z,148.88
2022-10-18T04:48:27.329Z,145.25
2022-10-18T04:50:53.994Z,149.57
2022-10-18T04:53:20.790Z,145.90
2022-10-18T04:55:51.131Z,152.38
2022-10-18T04:58:18.583Z,150.02
2022-10-18T05:00:45.912Z,146.43
2022-10-18T05:03:14.131Z,151.38
2022-10-18T05:06:00.273Z,151.68
2022-10-18T05:08:27.793Z,153.07
2022-10-18T05:10:54.653Z,155.30
2022-10-18T05:13:21.302Z,145.15
2022-10-18T05:15:47.884Z,155.20
2022-10-18T05:18:14.650Z,155.68
2022-10-18T05:20:41.362Z,146.85
2022-10-18T05:23:10.881Z,144.48
2022-10-18T05:25:42.249Z,148.70
2022-10-18T05:28:15.633Z,143.15
2022-10-18T05:30:47.820Z,152.73
2022-10-18T05:33:14.430Z,146.18
2022-10-18T05:35:41.108Z,152.55
2022-10-18T05:38:08.468Z,142.63
2022-10-18T05:40:38.187Z,152.68
2022-10-18T05:43:04.857Z,139.98
2022-10-18T05:45:31.442Z,147.15
2022-10-18T05:47:58.091Z,142.52
2022-10-18T05:50:24.835Z,147.18
2022-10-18T05:52:51.775Z,144.85
2022-10-18T05:55:18.610Z,143.02
2022-10-18T05:57:49.856Z,141.88
2022-10-18T06:00:17.540Z,146.30
2022-10-18T06:02:44.258Z,145.23
2022-10-18T06:05:11.014Z,143.30
2022-10-18T06:07:37.690Z,142.10
2022-10-18T06:10:04.754Z,141.70
2022-10-18T06:12:31.404Z,142.55
2022-10-18T06:14:58.224Z,143.48
2022-10-18T06:17:25.937Z,146.00
2022-10-18T06:19:54.390Z,144.13
2022-10-18T06:22:21.108Z,141.13
2022-10-18T06:24:47.909Z,138.93
2022-10-18T06:27:14.958Z,149.88
2022-10-18T06:29:44.137Z,145.63
2022-10-18T06:32:10.964Z,142.27
2022-10-18T06:34:37.694Z,144.98
2022-10-18T06:37:04.409Z,146.70
2022-10-18T06:39:31.148Z,144.10
2022-10-18T06:41:57.870Z,142.32
2022-10-18T06:44:24.620Z,140.48
2022-10-18T06:46:53.485Z,149.02
2022-10-18T06:49:20.290Z,138.30
2022-10-18T06:51:46.997Z,150.07
2022-10-18T06:54:17.950Z,144.70
2022-10-18T06:56:45.830Z,141.50
2022-10-18T06:59:12.476Z,146.82
2022-10-18T07:01:39.321Z,144.43
2022-10-18T07:04:06.064Z,147.02
2022-10-18T07:06:32.661Z,145.75
2022-10-18T07:08:59.347Z,157.15
2022-10-18T07:11:27.687Z,155.30
2022-10-18T07:14:00.858Z,153.10
2022-10-18T07:16:27.532Z,145.48
2022-10-18T07:18:54.166Z,152.20
2022-10-18T07:21:22.867Z,147.00
2022-10-18T07:23:50.727Z,158.57
2022-10-18T07:26:20.365Z,145.77
2022-10-18T07:28:50.293Z,151.60
2022-10-18T07:31:17.384Z,151.77
2022-10-18T07:33:44.093Z,151.35
2022-10-18T07:36:12.311Z,157.20
2022-10-18T07:38:41.924Z,155.23
2022-10-18T07:41:11.573Z,166.18
2022-10-18T07:43:42.075Z,156.73
2022-10-18T07:46:08.933Z,164.82
2022-10-18T07:48:35.505Z,157.57
2022-10-18T07:51:02.362Z,162.75
2022-10-18T07:53:29.678Z,160.55
2022-10-18T07:56:01.482Z,163.77
2022-10-18T07:58:32.353Z,166.50
2022-10-18T08:01:06.915Z,159.65
2022-10-18T08:03:34.486Z,160.23
2022-10-18T08:06:02.010Z,162.32
2022-10-18T08:08:29.829Z,159.68
2022-10-18T08:11:03.203Z,166.27
2022-10-18T08:13:30.632Z,161.82
2022-10-18T08:16:06.998Z,169.25
2022-10-18T08:18:33.688Z,161.25
2022-10-18T08:21:01.437Z,168.48
2022-10-18T08:23:28.040Z,159.88
2022-10-18T08:25:54.889Z,170.15
2022-10-18T08:28:21.747Z,168.93
2022-10-18T08:30:48.374Z,164.90
2022-10-18T08:33:15.027Z,160.27
2022-10-18T08:35:41.621Z,177.48
2022-10-18T08:38:16.413Z,170.48
2022-10-18T08:40:45.046Z,179.43
2022-10-18T08:43:17.022Z,166.13
2022-10-18T08:45:49.617Z,164.25
2022-10-18T08:48:47.461Z,169.15
2022-10-18T08:51:32.354Z,166.15
2022-10-18T08:54:12.451Z,169.65
2022-10-18T08:56:42.784Z,165.85
2022-10-18T08:59:13.655Z,173.85
2022-10-18T09:02:11.227Z,169.57
2022-10-18T09:05:08.896Z,170.13
2022-10-18T09:07:53.494Z,170.63
2022-10-18T09:10:42.562Z,178.85
2022-10-18T09:13:53.884Z,174.95
2022-10-18T09:16:45.480Z,175.45
2022-10-18T09:19:15.165Z,170.52
2022-10-18T09:22:08.973Z,173.18
2022-10-18T09:24:43.773Z,172.93
2022-10-18T09:27:18.799Z,178.63
2022-10-18T09:30:21.574Z,173.90
2022-10-18T09:32:56.439Z,176.10
2022-10-18T09:35:29.035Z,174.67
2022-10-18T09:38:03.808Z,173.40
2022-10-18T09:40:36.433Z,175.43
2022-10-18T09:43:11.849Z,174.23
2022-10-18T09:45:44.870Z,173.98
2022-10-18T09:48:17.543Z,173.38
2022-10-18T09:50:51.372Z,175.10
2022-10-18T09:53:30.308Z,176.82
2022-10-18T09:56:08.744Z,169.82
2022-10-18T09:58:47.504Z,177.50
2022-10-18T10:01:21.986Z,173.43
2022-10-18T10:03:48.721Z,176.25
2022-10-18T10:06:16.737Z,167.75
2022-10-18T10:09:13.885Z,170.82
2022-10-18T10:11:46.831Z,177.27
2022-10-18T10:14:26.465Z,177.73
2022-10-18T10:17:03.278Z,171.10
2022-10-18T10:19:34.746Z,171.60
2022-10-18T10:22:10.086Z,168.85
2022-10-18T10:24:42.689Z,177.18
2022-10-18T10:27:18.040Z,170.85
2022-10-18T10:29:47.737Z,176.35
2022-10-18T10:32:16.690Z,178.55
2022-10-18T10:34:44.875Z,179.52
2022-10-18T10:37:31.115Z,168.90
2022-10-18T10:43:00.060Z,165.00
2022-10-18T10:45:38.695Z,164.55
2022-10-18T10:48:09.331Z,175.00
2022-10-18T10:50:55.133Z,169.90
2022-10-18T10:55:58.160Z,172.70
2022-10-18T10:58:28.314Z,176.75
2022-10-18T11:00:57.797Z,180.82
2022-10-18T11:03:28.947Z,170.60
2022-10-18T11:05:58.259Z,171.27
2022-10-18T11:08:28.315Z,174.68
2022-10-18T11:11:13.329Z,174.88
2022-10-18T11:14:24.675Z,181.90
2022-10-18T11:16:59.873Z,178.70
2022-10-18T11:19:45.027Z,173.48
2022-10-18T11:22:18.442Z,177.82
2022-10-18T11:24:45.110Z,173.20
2022-10-18T11:27:29.281Z,174.05
2022-10-18T11:30:22.357Z,175.75
2022-10-18T11:32:55.025Z,178.90
2022-10-18T11:35:41.445Z,170.32
2022-10-18T11:38:07.994Z,173.63
2022-10-18T11:40:40.870Z,175.48
2022-10-18T11:43:07.411Z,177.38
2022-10-18T11:46:08.189Z,171.45
2022-10-18T11:48:49.108Z,175.55
2022-10-18T11:51:38.712Z,175.00
2022-10-18T11:54:29.546Z,181.32
2022-10-18T11:57:09.593Z,173.30
2022-10-18T11:59:43.205Z,169.90
2022-10-18T12:02:28.315Z,169.20
2022-10-18T12:08:18.332Z,166.85
2022-10-18T12:11:04.445Z,176.45
2022-10-18T12:13:43.347Z,173.50
2022-10-18T12:16:11.161Z,168.95
2022-10-18T12:21:27.239Z,172.25
2022-10-18T12:23:59.513Z,172.00
2022-10-18T12:26:28.807Z,174.52
2022-10-18T12:29:20.343Z,172.90
2022-10-18T12:31:52.143Z,173.35
2022-10-18T12:34:21.882Z,170.48
2022-10-18T12:37:16.451Z,176.88
2022-10-18T12:40:09.347Z,172.98
2022-10-18T12:42:45.829Z,174.10
2022-10-18T12:45:26.306Z,175.68
2022-10-18T12:47:54.056Z,174.10
2022-10-18T12:50:42.596Z,172.35
2022-10-18T12:53:12.378Z,173.27
2022-10-18T12:58:32.114Z,177.73
2022-10-18T13:01:02.367Z,172.95
2022-10-18T13:03:54.432Z,175.20
2022-10-18T13:06:22.014Z,176.05
2022-10-18T13:08:51.071Z,171.55
2022-10-18T13:11:33.436Z,176.18
2022-10-18T13:14:10.947Z,179.02
2022-10-18T13:16:45.973Z,170.52
2022-10-18T13:19:28.002Z,177.98
2022-10-18T13:22:13.524Z,172.65
2022-10-18T13:25:04.130Z,178.82
2022-10-18T13:27:54.138Z,176.55
2022-10-18T13:30:27.773Z,170.57
2022-10-18T13:33:22.416Z,178.98
2022-10-18T13:36:22.734Z,176.27
2022-10-18T13:38:57.774Z,172.68
2022-10-18T13:41:31.427Z,174.82
2022-10-18T13:44:25.853Z,174.35
2022-10-18T13:46:52.556Z,178.95
2022-10-18T13:49:34.328Z,175.35
2022-10-18T13:52:27.455Z,173.07
2022-10-18T13:55:12.878Z,178.50
2022-10-18T13:57:48.571Z,181.82
2022-10-18T14:00:29.009Z,173.45
2022-10-18T14:03:44.148Z,173.73
2022-10-18T14:06:19.337Z,173.57
2022-10-18T14:08:54.377Z,174.98
2022-10-18T14:11:36.260Z,176.68
2022-10-18T14:14:35.345Z,176.02
2022-10-18T14:17:15.418Z,177.93
2022-10-18T14:19:50.880Z,173.95
2022-10-18T14:22:34.753Z,172.98
2022-10-18T14:25:01.601Z,175.00
2022-10-18T14:27:32.559Z,179.13
2022-10-18T14:30:20.527Z,173.43
2022-10-18T14:32:54.509Z,177.90
2022-10-18T14:35:32.926Z,174.10
2022-10-18T14:38:00.654Z,173.93
2022-10-18T14:40:34.192Z,174.35
2022-10-18T14:43:19.844Z,181.73
2022-10-18T14:45:46.594Z,173.48
2022-10-18T14:48:23.296Z,177.68
2022-10-18T14:51:16.986Z,175.27
2022-10-18T14:53:43.753Z,175.90
2022-10-18T14:56:23.180Z,173.15
2022-10-18T14:58:50.608Z,176.38
2022-10-18T15:01:19.274Z,175.93
2022-10-18T15:03:47.402Z,174.77
2022-10-18T15:06:19.582Z,177.13
2022-10-18T15:08:52.700Z,179.85
2022-10-18T15:11:20.302Z,172.05
2022-10-18T15:13:50.664Z,173.68
2022-10-18T15:16:19.681Z,178.38
2022-10-18T15:19:08.324Z,176.75
2022-10-18T15:21:36.359Z,181.68
2022-10-18T15:24:30.266Z,182.20
2022-10-18T15:27:10.809Z,183.15
2022-10-18T15:29:38.056Z,179.15
2022-10-18T15:32:12.696Z,179.20
2022-10-18T15:34:39.412Z,180.27
2022-10-18T15:37:17.631Z,180.27
2022-10-18T15:39:44.291Z,182.85
2022-10-18T15:42:37.662Z,182.82
2022-10-18T15:45:22.441Z,182.57
2022-10-18T15:48:01.335Z,182.25
2022-10-18T15:50:39.817Z,182.75
2022-10-18T15:53:22.711Z,186.90
2022-10-18T15:55:53.651Z,181.35
2022-10-18T15:58:39.207Z,179.95
2022-10-18T16:01:14.280Z,184.32
2022-10-18T16:03:41.269Z,180.45
2022-10-18T16:06:12.320Z,179.23
2022-10-18T16:08:52.781Z,177.55
2022-10-18T16:11:22.346Z,179.05
2022-10-18T16:13:49.130Z,180.23
2022-10-18T16:16:20.452Z,176.30
2022-10-18T16:18:47.827Z,186.00
2022-10-18T16:21:25.495Z,183.02
2022-10-18T16:23:52.405Z,172.80
2022-10-18T16:26:20.334Z,184.75
2022-10-18T16:28:47.392Z,173.60
2022-10-18T16:31:19.801Z,173.70
2022-10-18T16:33:47.454Z,181.95
2022-10-18T16:36:19.265Z,186.35
2022-10-18T16:38:46.416Z,183.40
2022-10-18T16:41:13.424Z,186.82
2022-10-18T16:43:40.108Z,176.68
2022-10-18T16:46:07.649Z,194.20
2022-10-18T16:48:34.401Z,181.38
2022-10-18T16:51:01.994Z,189.80
2022-10-18T16:53:28.858Z,179.30
2022-10-18T16:56:00.823Z,180.63
2022-10-18T16:58:29.675Z,182.07
2022-10-18T17:00:57.000Z,193.02
2022-10-18T17:03:24.473Z,188.80
2022-10-18T17:05:51.845Z,172.23
2022-10-18T17:08:24.907Z,175.75
2022-10-18T17:10:53.288Z,176.10
2022-10-18T17:13:20.574Z,181.23
2022-10-18T17:15:47.339Z,184.10
2022-10-18T17:18:16.612Z,182.15
2022-10-18T17:20:44.268Z,178.35
2022-10-18T17:23:11.899Z,177.35
2022-10-18T17:25:51.462Z,185.55
2022-10-18T17:28:27.362Z,185.27
2022-10-18T17:30:54.123Z,182.60
2022-10-18T17:33:20.815Z,172.73
2022-10-18T17:35:48.993Z,176.13
2022-10-18T17:38:15.984Z,183.57
2022-10-18T17:40:43.464Z,180.45
2022-10-18T17:43:10.352Z,182.13
2022-10-18T17:45:37.018Z,174.20
2022-10-18T17:48:03.761Z,177.68
2022-10-18T17:50:30.450Z,174.85
2022-10-18T17:52:57.400Z,178.18
2022-10-18T17:55:24.083Z,182.38
2022-10-18T17:57:51.711Z,183.70
2022-10-18T18:00:18.699Z,182.20
2022-10-18T18:02:46.706Z,187.45
2022-10-18T18:05:13.340Z,182.75
2022-10-18T18:07:40.112Z,181.63
2022-10-18T18:10:06.965Z,177.50
2022-10-18T18:12:33.835Z,183.95
2022-10-18T18:15:00.619Z,175.98
2022-10-18T18:17:33.991Z,186.18
2022-10-18T18:20:07.081Z,179.70
2022-10-18T18:22:34.643Z,176.38
2022-10-18T18:25:02.698Z,177.60
2022-10-18T18:27:29.384Z,182.23
2022-10-18T18:29:56.305Z,177.95
2022-10-18T18:32:22.971Z,190.60
2022-10-18T18:34:49.839Z,190.55
2022-10-18T18:37:16.447Z,185.48
2022-10-18T18:39:43.267Z,177.90
2022-10-18T18:42:10.815Z,188.40
2022-10-18T18:44:37.420Z,181.48
2022-10-18T18:47:07.412Z,174.88
2022-10-18T18:49:37.534Z,180.60
2022-10-18T18:52:04.355Z,180.52
2022-10-18T18:54:31.710Z,180.45
2022-10-18T18:56:58.926Z,180.48
2022-10-18T18:59:25.692Z,174.82
2022-10-18T19:01:52.350Z,179.57
2022-10-18T19:04:21.231Z,175.25
2022-10-18T19:06:47.907Z,170.02
2022-10-18T19:09:22.178Z,176.80
2022-10-18T19:11:50.791Z,177.40
2022-10-18T19:14:17.443Z,177.55
2022-10-18T19:16:53.277Z,177.00
2022-10-18T19:19:22.612Z,180.23
2022-10-18T19:22:08.395Z,174.15
2022-10-18T19:24:35.450Z,176.90
2022-10-18T19:27:12.587Z,173.27
2022-10-18T19:29:40.470Z,171.90
2022-10-18T19:32:12.016Z,183.48
2022-10-18T19:34:39.323Z,175.30
2022-10-18T19:37:05.947Z,169.13
2022-10-18T19:39:35.382Z,168.50
2022-10-18T19:42:05.233Z,171.35
2022-10-18T19:44:35.862Z,164.80
2022-10-18T19:47:03.872Z,176.20
2022-10-18T19:49:30.710Z,164.18
2022-10-18T19:51:58.174Z,165.73
2022-10-18T19:54:25.759Z,173.60
2022-10-18T19:56:52.579Z,167.15
2022-10-18T19:59:19.653Z,168.23
2022-10-18T20:01:46.386Z,162.55
2022-10-18T20:04:13.560Z,164.77
2022-10-18T20:06:41.092Z,171.20
2022-10-18T20:09:09.260Z,172.18
2022-10-18T20:11:36.597Z,172.88
2022-10-18T20:14:05.451Z,172.52
2022-10-18T20:16:33.808Z,163.80
2022-10-18T20:19:03.391Z,174.60
2022-10-18T20:21:35.500Z,171.35
2022-10-18T20:24:03.731Z,174.82
2022-10-18T20:26:30.359Z,166.93
2022-10-18T20:28:58.516Z,169.07
2022-10-18T20:31:29.215Z,178.70
2022-10-18T20:33:59.136Z,163.57
2022-10-18T20:36:26.927Z,167.25
2022-10-18T20:38:54.984Z,168.88
2022-10-18T20:41:30.688Z,170.73
2022-10-18T20:44:02.873Z,171.70
2022-10-18T20:46:31.240Z,179.93
2022-10-18T20:48:57.926Z,173.95
2022-10-18T20:51:24.622Z,167.93
2022-10-18T20:53:52.055Z,169.10
2022-10-18T20:56:20.871Z,166.82
2022-10-18T20:58:49.742Z,169.35
2022-10-18T21:01:18.039Z,172.25
2022-10-18T21:03:46.643Z,177.18
2022-10-18T21:06:41.038Z,171.13
2022-10-18T21:09:14.853Z,175.60
2022-10-18T21:11:44.741Z,172.18
2022-10-18T21:14:14.067Z,175.00
2022-10-18T21:16:41.190Z,171.85
2022-10-18T21:19:11.834Z,172.60
2022-10-18T21:21:38.898Z,172.18
2022-10-18T21:24:07.871Z,169.15
2022-10-18T21:26:35.270Z,163.23
2022-10-18T21:29:02.588Z,167.82
2022-10-18T21:31:34.979Z,166.88
2022-10-18T21:34:07.372Z,165.20
2022-10-18T21:36:36.850Z,165.77
2022-10-18T21:39:06.494Z,165.82
2022-10-18T21:41:33.316Z,163.23
2022-10-18T21:44:00.319Z,166.45
2022-10-18T21:46:27.128Z,164.48
2022-10-18T21:48:55.618Z,166.70
2022-10-18T21:51:24.692Z,163.65
2022-10-18T21:53:53.288Z,159.68
2022-10-18T21:56:33.903Z,162.32
2022-10-18T21:59:01.867Z,172.10
2022-10-18T22:01:34.394Z,162.68
2022-10-18T22:04:02.805Z,168.02
2022-10-18T22:06:32.631Z,162.10
2022-10-18T22:09:01.997Z,168.32
2022-10-18T22:11:38.812Z,160.63
2022-10-18T22:14:05.581Z,161.95
2022-10-18T22:16:32.293Z,164.23
2022-10-18T22:19:01.392Z,170.13
2022-10-18T22:21:29.112Z,166.93
2022-10-18T22:23:57.560Z,162.98
2022-10-18T22:26:29.845Z,156.90
2022-10-18T22:28:59.443Z,170.85
2022-10-18T22:31:29.123Z,158.00
2022-10-18T22:33:57.888Z,157.07
2022-10-18T22:36:25.083Z,155.77
2022-10-18T22:38:52.112Z,154.05
2022-10-18T22:41:19.123Z,159.68
2022-10-18T22:43:47.667Z,153.15
2022-10-18T22:46:15.464Z,152.63
2022-10-18T22:48:42.964Z,152.73
2022-10-18T22:51:10.429Z,154.52
2022-10-18T22:53:38.388Z,165.93
2022-10-18T22:56:05.385Z,153.35
2022-10-18T22:58:32.428Z,163.43
2022-10-18T23:01:05.577Z,157.23
2022-10-18T23:03:32.456Z,152.93
2022-10-18T23:05:59.609Z,160.25
2022-10-18T23:08:26.694Z,162.82
2022-10-18T23:10:58.351Z,156.85
2022-10-18T23:13:26.260Z,154.82
2022-10-18T23:15:53.480Z,164.95
2022-10-18T23:18:20.121Z,155.95
2022-10-18T23:20:46.795Z,159.50
2022-10-18T23:23:13.884Z,164.45
2022-10-18T23:25:40.505Z,159.93
2022-10-18T23:28:07.434Z,157.63
2022-10-18T23:30:34.368Z,150.85
2022-10-18T23:33:01.036Z,151.23
2022-10-18T23:35:29.363Z,152.52
2022-10-18T23:37:55.956Z,151.30
2022-10-18T23:40:22.619Z,151.38
2022-10-18T23:42:49.216Z,150.05
2022-10-18T23:45:15.822Z,161.05
2022-10-18T23:47:42.459Z,158.85
2022-10-18T23:50:09.692Z,151.75
2022-10-18T23:52:36.335Z,157.32
2022-10-18T23:55:03.401Z,152.35
2022-10-18T23:57:30.194Z,153.90
2022-10-18T23:59:56.930Z,151.18
